sensor_id;sensor_type;location;lat;lon;timestamp;pressure;altitude;pressure_sealevel;temperature;humidity
69574;BME280;62840;52.366;5.980;2023-04-06T00:01:09;101782.06;;;1.45;57.91
69574;BME280;62840;52.366;5.980;2023-04-06T00:03:35;101773.47;;;1.40;58.12
69574;BME280;62840;52.366;5.980;2023-04-06T00:06:01;101777.06;;;1.36;58.05
69574;BME280;62840;52.366;5.980;2023-04-06T00:08:27;101770.09;;;1.35;58.18
69574;BME280;62840;52.366;5.980;2023-04-06T00:10:53;101767.47;;;1.35;58.12
69574;BME280;62840;52.366;5.980;2023-04-06T00:13:18;101764.13;;;1.30;58.12
69574;BME280;62840;52.366;5.980;2023-04-06T00:15:44;101761.56;;;1.27;58.15
69574;BME280;62840;52.366;5.980;2023-04-06T00:18:12;101758.13;;;1.25;58.13
69574;BME280;62840;52.366;5.980;2023-04-06T00:20:38;101756.41;;;1.24;58.41
69574;BME280;62840;52.366;5.980;2023-04-06T00:23:04;101760.88;;;1.20;58.53
69574;BME280;62840;52.366;5.980;2023-04-06T00:25:30;101756.59;;;1.18;58.28
69574;BME280;62840;52.366;5.980;2023-04-06T00:27:55;101750.59;;;1.14;58.51
69574;BME280;62840;52.366;5.980;2023-04-06T00:30:21;101747.13;;;1.12;58.69
69574;BME280;62840;52.366;5.980;2023-04-06T00:32:47;101746.25;;;1.12;58.39
69574;BME280;62840;52.366;5.980;2023-04-06T00:35:15;101745.50;;;1.08;58.35
69574;BME280;62840;52.366;5.980;2023-04-06T00:37:41;101739.44;;;1.04;58.59
69574;BME280;62840;52.366;5.980;2023-04-06T00:40:08;101737.75;;;1.03;58.79
69574;BME280;62840;52.366;5.980;2023-04-06T00:42:35;101734.31;;;1.01;58.57
69574;BME280;62840;52.366;5.980;2023-04-06T00:45:02;101732.56;;;1.00;58.75
69574;BME280;62840;52.366;5.980;2023-04-06T00:47:28;101730.94;;;0.96;58.83
69574;BME280;62840;52.366;5.980;2023-04-06T00:49:54;101725.75;;;0.93;58.75
69574;BME280;62840;52.366;5.980;2023-04-06T00:52:23;101727.56;;;0.91;58.92
69574;BME280;62840;52.366;5.980;2023-04-06T00:54:48;101734.63;;;0.89;58.99
69574;BME280;62840;52.366;5.980;2023-04-06T00:57:14;101718.97;;;0.86;58.98
69574;BME280;62840;52.366;5.980;2023-04-06T00:59:42;101722.59;;;0.82;59.04
69574;BME280;62840;52.366;5.980;2023-04-06T01:02:08;101719.13;;;0.80;58.89
69574;BME280;62840;52.366;5.980;2023-04-06T01:04:34;101713.97;;;0.77;58.89
69574;BME280;62840;52.366;5.980;2023-04-06T01:07:00;101713.97;;;0.77;58.86
69574;BME280;62840;52.366;5.980;2023-04-06T01:09:30;101713.97;;;0.77;59.00
69574;BME280;62840;52.366;5.980;2023-04-06T01:11:56;101701.81;;;0.74;58.83
69574;BME280;62840;52.366;5.980;2023-04-06T01:14:21;101707.94;;;0.73;58.84
69574;BME280;62840;52.366;5.980;2023-04-06T01:16:48;101708.00;;;0.72;58.79
69574;BME280;62840;52.366;5.980;2023-04-06T01:19:13;101704.59;;;0.68;58.86
69574;BME280;62840;52.366;5.980;2023-04-06T01:21:41;101705.44;;;0.69;58.98
69574;BME280;62840;52.366;5.980;2023-04-06T01:24:10;101703.84;;;0.64;59.15
69574;BME280;62840;52.366;5.980;2023-04-06T01:26:36;101701.22;;;0.64;59.25
69574;BME280;62840;52.366;5.980;2023-04-06T01:29:03;101697.69;;;0.64;59.26
69574;BME280;62840;52.366;5.980;2023-04-06T01:31:29;101691.59;;;0.63;59.08
69574;BME280;62840;52.366;5.980;2023-04-06T01:33:55;101693.34;;;0.64;59.18
69574;BME280;62840;52.366;5.980;2023-04-06T01:36:21;101681.09;;;0.63;59.34
69574;BME280;62840;52.366;5.980;2023-04-06T01:38:47;101675.00;;;0.63;59.19
69574;BME280;62840;52.366;5.980;2023-04-06T01:41:16;101675.94;;;0.60;59.21
69574;BME280;62840;52.366;5.980;2023-04-06T01:43:42;101676.81;;;0.59;59.31
69574;BME280;62840;52.366;5.980;2023-04-06T01:46:08;101682.16;;;0.56;59.49
69574;BME280;62840;52.366;5.980;2023-04-06T01:48:34;101684.78;;;0.56;59.59
69574;BME280;62840;52.366;5.980;2023-04-06T01:50:59;101672.53;;;0.57;59.78
69574;BME280;62840;52.366;5.980;2023-04-06T01:53:25;101669.03;;;0.56;59.51
69574;BME280;62840;52.366;5.980;2023-04-06T01:55:51;101666.41;;;0.56;59.73
69574;BME280;62840;52.366;5.980;2023-04-06T01:58:19;101666.41;;;0.56;59.63
69574;BME280;62840;52.366;5.980;2023-04-06T02:00:44;101665.56;;;0.56;59.81
69574;BME280;62840;52.366;5.980;2023-04-06T02:03:10;101664.66;;;0.57;59.83
69574;BME280;62840;52.366;5.980;2023-04-06T02:05:36;101661.19;;;0.56;59.87
69574;BME280;62840;52.366;5.980;2023-04-06T02:08:02;101664.69;;;0.55;59.76
69574;BME280;62840;52.366;5.980;2023-04-06T02:10:27;101654.25;;;0.54;59.75
69574;BME280;62840;52.366;5.980;2023-04-06T02:12:53;101652.47;;;0.54;59.76
69574;BME280;62840;52.366;5.980;2023-04-06T02:15:21;101651.63;;;0.54;59.95
69574;BME280;62840;52.366;5.980;2023-04-06T02:17:47;101643.81;;;0.51;59.81
69574;BME280;62840;52.366;5.980;2023-04-06T02:20:13;101654.31;;;0.51;59.93
69574;BME280;62840;52.366;5.980;2023-04-06T02:22:39;101645.63;;;0.49;59.80
69574;BME280;62840;52.366;5.980;2023-04-06T02:25:05;101637.81;;;0.47;60.02
69574;BME280;62840;52.366;5.980;2023-04-06T02:27:32;101648.31;;;0.47;59.79
69574;BME280;62840;52.366;5.980;2023-04-06T02:29:57;101643.06;;;0.47;59.88
69574;BME280;62840;52.366;5.980;2023-04-06T02:32:26;101645.72;;;0.45;59.92
69574;BME280;62840;52.366;5.980;2023-04-06T02:34:52;101641.31;;;0.46;59.98
69574;BME280;62840;52.366;5.980;2023-04-06T02:37:17;101644.88;;;0.45;59.92
69574;BME280;62840;52.366;5.980;2023-04-06T02:39:43;101639.72;;;0.42;60.22
69574;BME280;62840;52.366;5.980;2023-04-06T02:42:09;101637.88;;;0.44;60.02
69574;BME280;62840;52.366;5.980;2023-04-06T02:44:35;101648.38;;;0.44;60.15
69574;BME280;62840;52.366;5.980;2023-04-06T02:47:00;101642.28;;;0.43;60.04
69574;BME280;62840;52.366;5.980;2023-04-06T02:49:29;101634.47;;;0.42;60.18
69574;BME280;62840;52.366;5.980;2023-04-06T02:51:54;101628.31;;;0.41;60.27
69574;BME280;62840;52.366;5.980;2023-04-06T02:54:20;101627.47;;;0.41;60.39
69574;BME280;62840;52.366;5.980;2023-04-06T02:56:46;101619.69;;;0.38;60.26
69574;BME280;62840;52.366;5.980;2023-04-06T02:59:11;101618.81;;;0.37;60.39
69574;BME280;62840;52.366;5.980;2023-04-06T03:01:37;101615.34;;;0.37;60.59
69574;BME280;62840;52.366;5.980;2023-04-06T03:04:03;101615.34;;;0.37;60.50
69574;BME280;62840;52.366;5.980;2023-04-06T03:06:31;101615.34;;;0.37;60.30
69574;BME280;62840;52.366;5.980;2023-04-06T03:08:57;101616.19;;;0.37;60.45
69574;BME280;62840;52.366;5.980;2023-04-06T03:11:23;101616.19;;;0.37;60.60
69574;BME280;62840;52.366;5.980;2023-04-06T03:13:48;101611.84;;;0.38;60.68
69574;BME280;62840;52.366;5.980;2023-04-06T03:16:14;101610.09;;;0.37;60.67
69574;BME280;62840;52.366;5.980;2023-04-06T03:18:40;101617.06;;;0.38;60.63
69574;BME280;62840;52.366;5.980;2023-04-06T03:21:05;101605.69;;;0.37;60.72
69574;BME280;62840;52.366;5.980;2023-04-06T03:23:34;101603.13;;;0.36;60.66
69574;BME280;62840;52.366;5.980;2023-04-06T03:26:01;101608.38;;;0.36;60.93
69574;BME280;62840;52.366;5.980;2023-04-06T03:28:27;101608.38;;;0.36;60.76
69574;BME280;62840;52.366;5.980;2023-04-06T03:30:52;101604.84;;;0.37;60.84
69574;BME280;62840;52.366;5.980;2023-04-06T03:33:18;101608.28;;;0.39;60.66
69574;BME280;62840;52.366;5.980;2023-04-06T03:35:44;101602.16;;;0.40;60.82
69574;BME280;62840;52.366;5.980;2023-04-06T03:38:09;101603.03;;;0.39;60.82
69574;BME280;62840;52.366;5.980;2023-04-06T03:40:38;101603.03;;;0.39;61.03
69574;BME280;62840;52.366;5.980;2023-04-06T03:43:04;101603.06;;;0.37;60.94
69574;BME280;62840;52.366;5.980;2023-04-06T03:45:29;101604.84;;;0.37;60.85
69574;BME280;62840;52.366;5.980;2023-04-06T03:47:55;101601.34;;;0.38;60.99
69574;BME280;62840;52.366;5.980;2023-04-06T03:50:21;101592.53;;;0.39;60.92
69574;BME280;62840;52.366;5.980;2023-04-06T03:52:47;101599.53;;;0.40;61.23
69574;BME280;62840;52.366;5.980;2023-04-06T03:55:12;101597.72;;;0.42;61.07
69574;BME280;62840;52.366;5.980;2023-04-06T03:57:41;101591.59;;;0.41;61.14
69574;BME280;62840;52.366;5.980;2023-04-06T04:00:08;101588.09;;;0.42;60.99
69574;BME280;62840;52.366;5.980;2023-04-06T04:02:34;101585.41;;;0.44;61.01
69574;BME280;62840;52.366;5.980;2023-04-06T04:05:00;101594.97;;;0.47;60.89
69574;BME280;62840;52.366;5.980;2023-04-06T04:07:26;101588.81;;;0.48;61.02
69574;BME280;62840;52.366;5.980;2023-04-06T04:09:52;101594.91;;;0.48;61.11
69574;BME280;62840;52.366;5.980;2023-04-06T04:12:18;101592.28;;;0.48;61.21
69574;BME280;62840;52.366;5.980;2023-04-06T04:14:46;101593.13;;;0.49;61.36
69574;BME280;62840;52.366;5.980;2023-04-06T04:17:12;101598.34;;;0.50;61.36
69574;BME280;62840;52.366;5.980;2023-04-06T04:19:37;101592.22;;;0.51;61.38
69574;BME280;62840;52.366;5.980;2023-04-06T04:22:03;101584.34;;;0.51;61.49
69574;BME280;62840;52.366;5.980;2023-04-06T04:24:29;101586.88;;;0.54;61.80
69574;BME280;62840;52.366;5.980;2023-04-06T04:26:55;101583.31;;;0.55;61.59
69574;BME280;62840;52.366;5.980;2023-04-06T04:29:20;101583.31;;;0.55;61.54
69574;BME280;62840;52.366;5.980;2023-04-06T04:31:49;101575.41;;;0.57;61.55
69574;BME280;62840;52.366;5.980;2023-04-06T04:34:15;101584.97;;;0.59;61.82
69574;BME280;62840;52.366;5.980;2023-04-06T04:36:41;101586.69;;;0.60;61.58
69574;BME280;62840;52.366;5.980;2023-04-06T04:39:07;101582.25;;;0.62;61.46
69574;BME280;62840;52.366;5.980;2023-04-06T04:41:33;101577.91;;;0.61;61.76
69574;BME280;62840;52.366;5.980;2023-04-06T04:43:59;101577.88;;;0.63;61.80
69574;BME280;62840;52.366;5.980;2023-04-06T04:46:24;101577.84;;;0.64;61.74
69574;BME280;62840;52.366;5.980;2023-04-06T04:48:53;101581.25;;;0.66;61.70
69574;BME280;62840;52.366;5.980;2023-04-06T04:51:18;101570.75;;;0.66;61.82
69574;BME280;62840;52.366;5.980;2023-04-06T04:53:44;101579.44;;;0.69;61.88
69574;BME280;62840;52.366;5.980;2023-04-06T04:56:10;101581.19;;;0.70;62.01
69574;BME280;62840;52.366;5.980;2023-04-06T04:58:35;101577.63;;;0.71;61.78
69574;BME280;62840;52.366;5.980;2023-04-06T05:01:01;101571.44;;;0.73;61.78
69574;BME280;62840;52.366;5.980;2023-04-06T05:03:27;101579.22;;;0.76;61.79
69574;BME280;62840;52.366;5.980;2023-04-06T05:05:55;101582.59;;;0.80;62.01
69574;BME280;62840;52.366;5.980;2023-04-06T05:08:21;101572.88;;;0.83;61.85
69574;BME280;62840;52.366;5.980;2023-04-06T05:10:47;101570.22;;;0.85;61.92
69574;BME280;62840;52.366;5.980;2023-04-06T05:13:13;101564.84;;;0.88;61.85
69574;BME280;62840;52.366;5.980;2023-04-06T05:15:39;101562.19;;;0.90;61.86
69574;BME280;62840;52.366;5.980;2023-04-06T05:18:05;101566.50;;;0.92;62.16
69574;BME280;62840;52.366;5.980;2023-04-06T05:20:32;101566.38;;;0.95;62.10
69574;BME280;62840;52.366;5.980;2023-04-06T05:23:00;101561.06;;;0.98;61.89
69574;BME280;62840;52.366;5.980;2023-04-06T05:25:26;101560.94;;;1.01;62.09
69574;BME280;62840;52.366;5.980;2023-04-06T05:27:53;101559.13;;;1.03;62.20
69574;BME280;62840;52.366;5.980;2023-04-06T05:30:19;101559.03;;;1.06;61.88
69574;BME280;62840;52.366;5.980;2023-04-06T05:32:46;101555.41;;;1.11;62.13
69574;BME280;62840;52.366;5.980;2023-04-06T05:35:12;101562.28;;;1.15;62.18
69574;BME280;62840;52.366;5.980;2023-04-06T05:37:38;101552.53;;;1.18;62.10
69574;BME280;62840;52.366;5.980;2023-04-06T05:40:08;101557.59;;;1.24;61.98
69574;BME280;62840;52.366;5.980;2023-04-06T05:42:36;101560.06;;;1.29;62.20
69574;BME280;62840;52.366;5.980;2023-04-06T05:45:02;101554.63;;;1.35;62.13
69574;BME280;62840;52.366;5.980;2023-04-06T05:47:28;101558.06;;;1.37;62.07
69574;BME280;62840;52.366;5.980;2023-04-06T05:49:54;101549.16;;;1.41;62.21
69574;BME280;62840;52.366;5.980;2023-04-06T05:52:20;101549.91;;;1.45;62.00
69574;BME280;62840;52.366;5.980;2023-04-06T05:54:46;101548.00;;;1.50;62.32
69574;BME280;62840;52.366;5.980;2023-04-06T05:57:14;101557.44;;;1.56;62.13
69574;BME280;62840;52.366;5.980;2023-04-06T05:59:40;101549.41;;;1.60;62.21
69574;BME280;62840;52.366;5.980;2023-04-06T06:02:06;101551.00;;;1.64;62.08
69574;BME280;62840;52.366;5.980;2023-04-06T06:04:31;101548.22;;;1.69;62.17
69574;BME280;62840;52.366;5.980;2023-04-06T06:06:57;101549.84;;;1.73;62.31
69574;BME280;62840;52.366;5.980;2023-04-06T06:09:23;101549.72;;;1.76;62.12
69574;BME280;62840;52.366;5.980;2023-04-06T06:11:49;101549.66;;;1.79;62.22
69574;BME280;62840;52.366;5.980;2023-04-06T06:14:17;101549.53;;;1.82;62.11
69574;BME280;62840;52.366;5.980;2023-04-06T06:16:43;101551.13;;;1.86;62.14
69574;BME280;62840;52.366;5.980;2023-04-06T06:19:09;101549.31;;;1.88;62.12
69574;BME280;62840;52.366;5.980;2023-04-06T06:21:35;101543.00;;;1.92;62.01
69574;BME280;62840;52.366;5.980;2023-04-06T06:24:00;101545.56;;;1.96;62.32
69574;BME280;62840;52.366;5.980;2023-04-06T06:26:26;101543.72;;;1.98;62.48
69574;BME280;62840;52.366;5.980;2023-04-06T06:28:52;101540.09;;;2.02;62.23
69574;BME280;62840;52.366;5.980;2023-04-06T06:31:20;101543.28;;;2.10;62.32
69574;BME280;62840;52.366;5.980;2023-04-06T06:33:46;101540.44;;;2.16;62.30
69574;BME280;62840;52.366;5.980;2023-04-06T06:36:12;101546.16;;;2.27;62.10
69574;BME280;62840;52.366;5.980;2023-04-06T06:38:37;101551.88;;;2.39;62.12
69574;BME280;62840;52.366;5.980;2023-04-06T06:41:03;101547.09;;;2.50;62.02
69574;BME280;62840;52.366;5.980;2023-04-06T06:43:29;101537.81;;;2.63;61.98
69574;BME280;62840;52.366;5.980;2023-04-06T06:45:55;101540.75;;;2.78;61.69
69574;BME280;62840;52.366;5.980;2023-04-06T06:48:23;101534.94;;;2.91;61.58
69574;BME280;62840;52.366;5.980;2023-04-06T06:50:49;101543.22;;;3.04;61.45
69574;BME280;62840;52.366;5.980;2023-04-06T06:53:14;101533.16;;;3.14;61.44
69574;BME280;62840;52.366;5.980;2023-04-06T06:55:40;101535.38;;;3.25;60.80
69574;BME280;62840;52.366;5.980;2023-04-06T06:58:06;101539.41;;;3.33;60.60
69574;BME280;62840;52.366;5.980;2023-04-06T07:00:32;101540.88;;;3.41;60.21
69574;BME280;62840;52.366;5.980;2023-04-06T07:02:58;101539.63;;;3.49;59.99
69574;BME280;62840;52.366;5.980;2023-04-06T07:05:26;101536.75;;;3.55;59.88
69574;BME280;62840;52.366;5.980;2023-04-06T07:07:52;101535.56;;;3.63;60.04
69574;BME280;62840;52.366;5.980;2023-04-06T07:10:17;101523.88;;;3.68;60.22
69574;BME280;62840;52.366;5.980;2023-04-06T07:12:43;101523.56;;;3.76;60.21
69574;BME280;62840;52.366;5.980;2023-04-06T07:15:10;101527.50;;;3.86;60.37
69574;BME280;62840;52.366;5.980;2023-04-06T07:17:36;101523.53;;;3.96;60.03
69574;BME280;62840;52.366;5.980;2023-04-06T07:20:01;101521.28;;;4.08;59.56
69574;BME280;62840;52.366;5.980;2023-04-06T07:22:30;101517.31;;;4.18;59.49
69574;BME280;62840;52.366;5.980;2023-04-06T07:24:56;101514.25;;;4.27;59.33
69574;BME280;62840;52.366;5.980;2023-04-06T07:27:22;101514.63;;;4.38;59.08
69574;BME280;62840;52.366;5.980;2023-04-06T07:29:47;101513.13;;;4.52;58.66
69574;BME280;62840;52.366;5.980;2023-04-06T07:32:13;101512.53;;;4.64;58.74
69574;BME280;62840;52.366;5.980;2023-04-06T07:34:39;101504.97;;;4.75;58.62
69574;BME280;62840;52.366;5.980;2023-04-06T07:37:05;101515.72;;;4.90;58.87
69574;BME280;62840;52.366;5.980;2023-04-06T07:39:33;101510.81;;;5.01;58.48
69574;BME280;62840;52.366;5.980;2023-04-06T07:41:59;101509.38;;;5.13;58.14
69574;BME280;62840;52.366;5.980;2023-04-06T07:44:25;101508.81;;;5.23;58.19
69574;BME280;62840;52.366;5.980;2023-04-06T07:46:50;101509.06;;;5.36;58.28
69574;BME280;62840;52.366;5.980;2023-04-06T07:49:16;101512.03;;;5.47;58.22
69574;BME280;62840;52.366;5.980;2023-04-06T07:51:42;101510.56;;;5.59;57.91
69574;BME280;62840;52.366;5.980;2023-04-06T07:54:08;101505.50;;;5.72;57.98
69574;BME280;62840;52.366;5.980;2023-04-06T07:56:36;101501.44;;;5.82;57.63
69574;BME280;62840;52.366;5.980;2023-04-06T07:59:02;101500.97;;;5.92;57.80
69574;BME280;62840;52.366;5.980;2023-04-06T08:01:28;101496.03;;;6.01;57.58
69574;BME280;62840;52.366;5.980;2023-04-06T08:03:54;101491.97;;;6.12;57.45
69574;BME280;62840;52.366;5.980;2023-04-06T08:06:21;101501.28;;;6.19;57.32
69574;BME280;62840;52.366;5.980;2023-04-06T08:08:46;101494.72;;;6.26;57.06
69574;BME280;62840;52.366;5.980;2023-04-06T08:11:12;101495.25;;;6.33;57.19
69574;BME280;62840;52.366;5.980;2023-04-06T08:13:40;101488.59;;;6.41;56.92
69574;BME280;62840;52.366;5.980;2023-04-06T08:16:06;101493.38;;;6.50;56.68
69574;BME280;62840;52.366;5.980;2023-04-06T08:18:32;101491.00;;;6.62;56.93
69574;BME280;62840;52.366;5.980;2023-04-06T08:20:58;101492.88;;;6.76;56.90
69574;BME280;62840;52.366;5.980;2023-04-06T08:23:24;101493.88;;;6.89;56.46
69574;BME280;62840;52.366;5.980;2023-04-06T08:25:49;101491.47;;;7.00;56.15
69574;BME280;62840;52.366;5.980;2023-04-06T08:28:15;101489.25;;;7.08;56.21
69574;BME280;62840;52.366;5.980;2023-04-06T08:30:43;101489.56;;;7.18;56.12
69574;BME280;62840;52.366;5.980;2023-04-06T08:33:09;101486.38;;;7.27;55.68
69574;BME280;62840;52.366;5.980;2023-04-06T08:35:35;101490.38;;;7.34;55.85
69574;BME280;62840;52.366;5.980;2023-04-06T08:38:01;101489.00;;;7.43;55.56
69574;BME280;62840;52.366;5.980;2023-04-06T08:40:26;101485.03;;;7.50;55.50
69574;BME280;62840;52.366;5.980;2023-04-06T08:42:55;101481.94;;;7.58;55.64
69574;BME280;62840;52.366;5.980;2023-04-06T08:45:22;101486.69;;;7.67;55.51
69574;BME280;62840;52.366;5.980;2023-04-06T08:47:51;101482.72;;;7.74;55.37
69574;BME280;62840;52.366;5.980;2023-04-06T08:50:18;101484.06;;;7.82;55.28
69574;BME280;62840;52.366;5.980;2023-04-06T08:52:47;101476.66;;;7.87;55.20
69574;BME280;62840;52.366;5.980;2023-04-06T08:55:13;101481.59;;;7.93;55.00
69574;BME280;62840;52.366;5.980;2023-04-06T08:57:40;101475.91;;;7.99;55.09
69574;BME280;62840;52.366;5.980;2023-04-06T09:00:10;101468.50;;;8.04;54.84
69574;BME280;62840;52.366;5.980;2023-04-06T09:02:38;101475.13;;;8.11;54.92
69574;BME280;62840;52.366;5.980;2023-04-06T09:05:08;101468.59;;;8.17;54.60
69574;BME280;62840;52.366;5.980;2023-04-06T09:07:35;101469.25;;;8.21;54.74
69574;BME280;62840;52.366;5.980;2023-04-06T09:10:00;101474.19;;;8.27;54.57
69574;BME280;62840;52.366;5.980;2023-04-06T09:12:28;101469.34;;;8.33;54.57
69574;BME280;62840;52.366;5.980;2023-04-06T09:14:55;101473.22;;;8.42;54.49
69574;BME280;62840;52.366;5.980;2023-04-06T09:17:21;101471.97;;;8.48;54.42
69574;BME280;62840;52.366;5.980;2023-04-06T09:19:48;101467.09;;;8.54;53.99
69574;BME280;62840;52.366;5.980;2023-04-06T09:22:17;101471.19;;;8.60;53.98
69574;BME280;62840;52.366;5.980;2023-04-06T09:24:45;101468.03;;;8.68;54.05
69574;BME280;62840;52.366;5.980;2023-04-06T09:27:12;101469.38;;;8.75;54.16
69574;BME280;62840;52.366;5.980;2023-04-06T09:29:39;101465.34;;;8.82;53.86
69574;BME280;62840;52.366;5.980;2023-04-06T09:32:06;101475.56;;;8.88;53.69
69574;BME280;62840;52.366;5.980;2023-04-06T09:34:33;101462.63;;;8.96;53.64
69574;BME280;62840;52.366;5.980;2023-04-06T09:36:59;101462.09;;;9.04;53.67
69574;BME280;62840;52.366;5.980;2023-04-06T09:39:28;101463.31;;;9.13;53.47
69574;BME280;62840;52.366;5.980;2023-04-06T09:41:54;101453.97;;;9.20;53.19
69574;BME280;62840;52.366;5.980;2023-04-06T09:44:20;101456.94;;;9.28;52.80
69574;BME280;62840;52.366;5.980;2023-04-06T09:46:46;101457.53;;;9.33;52.78
69574;BME280;62840;52.366;5.980;2023-04-06T09:49:13;101458.84;;;9.40;52.66
69574;BME280;62840;52.366;5.980;2023-04-06T09:51:40;101452.31;;;9.45;52.36
69574;BME280;62840;52.366;5.980;2023-04-06T09:54:11;101451.16;;;9.49;52.32
69574;BME280;62840;52.366;5.980;2023-04-06T09:56:51;101451.72;;;9.54;52.15
69574;BME280;62840;52.366;5.980;2023-04-06T09:59:27;101445.75;;;9.63;51.92
69574;BME280;62840;52.366;5.980;2023-04-06T10:02:05;101447.03;;;9.70;52.05
69574;BME280;62840;52.366;5.980;2023-04-06T10:04:40;101441.81;;;9.81;52.00
69574;BME280;62840;52.366;5.980;2023-04-06T10:07:12;101440.19;;;9.92;51.50
69574;BME280;62840;52.366;5.980;2023-04-06T10:09:38;101432.50;;;10.00;51.44
69574;BME280;62840;52.366;5.980;2023-04-06T10:12:07;101435.50;;;10.08;51.17
69574;BME280;62840;52.366;5.980;2023-04-06T10:14:34;101440.38;;;10.14;51.07
69574;BME280;62840;52.366;5.980;2023-04-06T10:17:02;101431.19;;;10.18;50.66
69574;BME280;62840;52.366;5.980;2023-04-06T10:19:34;101433.44;;;10.24;50.85
69574;BME280;62840;52.366;5.980;2023-04-06T10:22:08;101439.28;;;10.30;50.89
69574;BME280;62840;52.366;5.980;2023-04-06T10:24:40;101437.75;;;10.38;50.92
69574;BME280;62840;52.366;5.980;2023-04-06T10:27:09;101434.56;;;10.46;50.58
69574;BME280;62840;52.366;5.980;2023-04-06T10:29:44;101432.16;;;10.54;50.22
69574;BME280;62840;52.366;5.980;2023-04-06T10:32:11;101438.75;;;10.61;50.39
69574;BME280;62840;52.366;5.980;2023-04-06T10:34:36;101432.97;;;10.67;50.29
69574;BME280;62840;52.366;5.980;2023-04-06T10:37:10;101433.38;;;10.74;49.83
69574;BME280;62840;52.366;5.980;2023-04-06T10:39:45;101438.25;;;10.80;49.85
69574;BME280;62840;52.366;5.980;2023-04-06T10:42:14;101431.59;;;10.86;49.69
69574;BME280;62840;52.366;5.980;2023-04-06T10:44:43;101431.44;;;10.89;49.39
69574;BME280;62840;52.366;5.980;2023-04-06T10:47:15;101433.75;;;10.94;49.60
69574;BME280;62840;52.366;5.980;2023-04-06T10:49:42;101435.84;;;11.01;49.59
69574;BME280;62840;52.366;5.980;2023-04-06T10:52:07;101428.31;;;11.06;49.42
69574;BME280;62840;52.366;5.980;2023-04-06T10:54:34;101436.84;;;11.12;49.36
69574;BME280;62840;52.366;5.980;2023-04-06T10:57:07;101432.13;;;11.15;49.33
69574;BME280;62840;52.366;5.980;2023-04-06T10:59:35;101427.41;;;11.19;49.14
69574;BME280;62840;52.366;5.980;2023-04-06T11:02:01;101419.25;;;11.20;49.08
69574;BME280;62840;52.366;5.980;2023-04-06T11:04:27;101420.97;;;11.21;49.37
69574;BME280;62840;52.366;5.980;2023-04-06T11:06:53;101434.22;;;11.23;49.15
69574;BME280;62840;52.366;5.980;2023-04-06T11:09:24;101444.66;;;11.26;49.24
69574;BME280;62840;52.366;5.980;2023-04-06T11:11:51;101432.88;;;11.28;48.94
69574;BME280;62840;52.366;5.980;2023-04-06T11:14:17;101435.22;;;11.33;49.14
69574;BME280;62840;52.366;5.980;2023-04-06T11:16:46;101435.00;;;11.36;49.25
69574;BME280;62840;52.366;5.980;2023-04-06T11:19:12;101438.38;;;11.38;49.20
69574;BME280;62840;52.366;5.980;2023-04-06T11:21:39;101432.81;;;11.41;49.10
69574;BME280;62840;52.366;5.980;2023-04-06T11:24:10;101430.88;;;11.43;49.08
69574;BME280;62840;52.366;5.980;2023-04-06T11:26:39;101429.91;;;11.44;49.33
69574;BME280;62840;52.366;5.980;2023-04-06T11:29:06;101440.47;;;11.46;49.06
69574;BME280;62840;52.366;5.980;2023-04-06T11:31:39;101443.03;;;11.47;49.19
69574;BME280;62840;52.366;5.980;2023-04-06T11:34:12;101435.72;;;11.49;49.40
69574;BME280;62840;52.366;5.980;2023-04-06T11:36:42;101436.47;;;11.52;49.18
69574;BME280;62840;52.366;5.980;2023-04-06T11:39:08;101440.84;;;11.53;49.62
69574;BME280;62840;52.366;5.980;2023-04-06T11:41:34;101447.03;;;11.53;49.78
69574;BME280;62840;52.366;5.980;2023-04-06T11:44:01;101439.88;;;11.54;49.81
69574;BME280;62840;52.366;5.980;2023-04-06T11:46:27;101435.50;;;11.53;49.65
69574;BME280;62840;52.366;5.980;2023-04-06T11:48:57;101429.31;;;11.52;49.59
69574;BME280;62840;52.366;5.980;2023-04-06T11:51:26;101432.09;;;11.50;50.08
69574;BME280;62840;52.366;5.980;2023-04-06T11:53:52;101431.13;;;11.52;50.22
69574;BME280;62840;52.366;5.980;2023-04-06T11:56:25;101426.28;;;11.57;50.31
69574;BME280;62840;52.366;5.980;2023-04-06T11:58:54;101426.03;;;11.60;50.08
69574;BME280;62840;52.366;5.980;2023-04-06T12:01:20;101431.38;;;11.60;49.88
69574;BME280;62840;52.366;5.980;2023-04-06T12:03:46;101430.66;;;11.58;50.16
69574;BME280;62840;52.366;5.980;2023-04-06T12:06:12;101419.22;;;11.56;50.09
69574;BME280;62840;52.366;5.980;2023-04-06T12:08:41;101436.34;;;11.53;50.19
69574;BME280;62840;52.366;5.980;2023-04-06T12:11:07;101427.59;;;11.51;50.57
69574;BME280;62840;52.366;5.980;2023-04-06T12:13:32;101428.44;;;11.52;50.89
69574;BME280;62840;52.366;5.980;2023-04-06T12:15:58;101432.09;;;11.50;50.81
69574;BME280;62840;52.366;5.980;2023-04-06T12:18:24;101434.03;;;11.48;50.97
69574;BME280;62840;52.366;5.980;2023-04-06T12:20:49;101438.66;;;11.46;51.25
69574;BME280;62840;52.366;5.980;2023-04-06T12:23:16;101428.69;;;11.48;51.40
69574;BME280;62840;52.366;5.980;2023-04-06T12:25:44;101436.59;;;11.50;51.85
69574;BME280;62840;52.366;5.980;2023-04-06T12:28:10;101428.69;;;11.48;52.13
69574;BME280;62840;52.366;5.980;2023-04-06T12:30:36;101431.47;;;11.47;52.27
69574;BME280;62840;52.366;5.980;2023-04-06T12:33:02;101426.28;;;11.45;52.28
69574;BME280;62840;52.366;5.980;2023-04-06T12:35:28;101430.88;;;11.43;52.38
69574;BME280;62840;52.366;5.980;2023-04-06T12:37:53;101426.84;;;11.38;52.54
69574;BME280;62840;52.366;5.980;2023-04-06T12:40:20;101426.72;;;11.28;52.73
69574;BME280;62840;52.366;5.980;2023-04-06T12:42:48;101433.25;;;11.24;53.03
69574;BME280;62840;52.366;5.980;2023-04-06T12:45:14;101432.75;;;11.19;53.44
69574;BME280;62840;52.366;5.980;2023-04-06T12:47:40;101430.78;;;11.10;53.60
69574;BME280;62840;52.366;5.980;2023-04-06T12:50:06;101427.81;;;11.01;53.76
69574;BME280;62840;52.366;5.980;2023-04-06T12:52:33;101436.28;;;10.95;53.99
69574;BME280;62840;52.366;5.980;2023-04-06T12:54:59;101433.00;;;10.92;54.21